Time,TemperatureF,DewpointF,PressureIn,WindDirection,WindDirectionDegrees,WindSpeedMPH,WindSpeedGustMPH,Humidity,HourlyPrecipIn,Conditions,Clouds,dailyrainin,SolarRadiationWatts/m^2,SoftwareType,DateUTC
2013-03-11 00:00:00,26.0,24.0,-100.00,NNE,14,7.0,20.0,92,0.00,,,0.14,0.000000,,2013-03-11 05:00:00,
2013-03-11 00:32:00,26.0,24.0,-100.00,NNE,14,7.0,20.0,92,0.00,,,0.14,0.000000,,2013-03-11 05:32:00,
2013-03-11 00:43:00,26.0,24.0,-100.00,NNE,14,7.0,20.0,92,0.00,,,0.14,0.000000,,2013-03-11 05:43:00,
2013-03-11 00:52:00,26.0,24.0,-100.00,NNE,14,7.0,20.0,92,0.00,,,0.14,0.000000,,2013-03-11 05:52:00,
2013-03-11 01:00:00,26.0,25.0,-100.00,NNE,12,7.0,14.0,94,0.00,,,0.12,0.000000,,2013-03-11 06:00:00,
2013-03-11 01:33:00,26.0,25.0,-100.00,NNE,12,7.0,14.0,94,0.00,,,0.12,0.000000,,2013-03-11 06:33:00,
2013-03-11 01:42:00,26.0,25.0,-100.00,NNE,12,7.0,14.0,94,0.00,,,0.12,0.000000,,2013-03-11 06:42:00,
2013-03-11 01:53:00,26.0,25.0,-100.00,NNE,12,7.0,14.0,94,0.00,,,0.12,0.000000,,2013-03-11 06:53:00,
2013-03-11 02:00:00,26.0,25.0,-100.00,North,356,7.0,12.0,94,0.00,,,0.11,0.000000,,2013-03-11 07:00:00,
2013-03-11 02:33:00,26.0,25.0,-100.00,North,356,7.0,12.0,94,0.00,,,0.11,0.000000,,2013-03-11 07:33:00,
2013-03-11 02:42:00,26.0,25.0,-100.00,North,356,7.0,12.0,94,0.00,,,0.11,0.000000,,2013-03-11 07:42:00,
2013-03-11 02:52:00,26.0,25.0,-100.00,North,356,7.0,12.0,94,0.00,,,0.11,0.000000,,2013-03-11 07:52:00,
2013-03-11 03:00:00,26.0,25.0,-100.00,North,359,7.0,13.0,94,0.00,,,-99.99,0.000000,,2013-03-11 08:00:00,
2013-03-11 03:33:00,26.0,25.0,-100.00,North,359,7.0,13.0,94,0.00,,,-99.99,0.000000,,2013-03-11 08:33:00,
2013-03-11 03:42:00,26.0,25.0,-100.00,North,359,7.0,13.0,94,0.00,,,-99.99,0.000000,,2013-03-11 08:42:00,
2013-03-11 03:52:00,26.0,25.0,-100.00,North,359,7.0,13.0,94,0.00,,,-99.99,0.000000,,2013-03-11 08:52:00,
2013-03-11 04:00:00,26.0,24.0,-100.00,North,2,8.0,16.0,93,0.00,,,0.09,0.000000,,2013-03-11 09:00:00,
2013-03-11 04:23:00,26.0,24.0,-100.00,North,2,8.0,16.0,93,0.00,,,0.09,0.000000,,2013-03-11 09:23:00,
2013-03-11 04:32:00,26.0,24.0,-100.00,North,2,8.0,16.0,93,0.00,,,0.09,0.000000,,2013-03-11 09:32:00,
2013-03-11 04:42:00,26.0,24.0,-100.00,North,2,8.0,16.0,93,0.00,,,0.09,0.000000,,2013-03-11 09:42:00,
2013-03-11 04:52:00,26.0,24.0,-100.00,North,2,8.0,16.0,93,0.00,,,0.09,0.000000,,2013-03-11 09:52:00,
2013-03-11 05:00:00,26.0,24.0,-100.00,North,358,8.0,16.0,93,0.00,,,0.07,0.000000,,2013-03-11 10:00:00,
2013-03-11 05:33:00,26.0,24.0,-100.00,North,358,8.0,16.0,93,0.00,,,0.07,0.000000,,2013-03-11 10:33:00,
2013-03-11 05:42:00,26.0,24.0,-100.00,North,358,8.0,16.0,93,0.00,,,0.07,0.000000,,2013-03-11 10:42:00,
2013-03-11 05:52:00,26.0,24.0,-100.00,North,358,8.0,16.0,93,0.00,,,0.07,0.000000,,2013-03-11 10:52:00,
2013-03-11 06:00:00,26.0,24.0,-100.00,North,3,10.0,18.0,92,0.00,,,-99.99,0.000000,,2013-03-11 11:00:00,
2013-03-11 06:33:00,26.0,24.0,-100.00,North,3,10.0,18.0,92,0.00,,,-99.99,0.000000,,2013-03-11 11:33:00,
2013-03-11 06:43:00,26.0,24.0,-100.00,North,3,10.0,18.0,92,0.00,,,-99.99,0.000000,,2013-03-11 11:43:00,
2013-03-11 06:53:00,26.0,24.0,-100.00,North,3,10.0,18.0,92,0.00,,,-99.99,0.000000,,2013-03-11 11:53:00,
2013-03-11 07:00:00,25.0,23.0,-100.00,North,8,11.0,20.0,91,0.00,,,-99.99,0.000000,,2013-03-11 12:00:00,
2013-03-11 07:33:00,25.0,23.0,-100.00,North,8,11.0,20.0,91,0.00,,,-99.99,0.000000,,2013-03-11 12:33:00,
2013-03-11 07:43:00,25.0,23.0,-100.00,North,8,11.0,20.0,91,0.00,,,-99.99,0.000000,,2013-03-11 12:43:00,
2013-03-11 07:53:00,25.0,23.0,-100.00,North,8,11.0,20.0,91,0.00,,,-99.99,0.000000,,2013-03-11 12:53:00,
2013-03-11 08:00:00,25.0,23.0,-100.00,NNE,17,8.0,26.0,92,0.00,,,-99.99,2.000000,,2013-03-11 13:00:00,
2013-03-11 08:22:00,25.0,23.0,-100.00,NNE,17,8.0,26.0,92,0.00,,,-99.99,2.000000,,2013-03-11 13:22:00,
2013-03-11 08:33:00,25.0,23.0,-100.00,NNE,17,8.0,26.0,92,0.00,,,-99.99,2.000000,,2013-03-11 13:33:00,
2013-03-11 08:43:00,25.0,23.0,-100.00,NNE,17,8.0,26.0,92,0.00,,,-99.99,2.000000,,2013-03-11 13:43:00,
2013-03-11 08:52:00,25.0,23.0,-100.00,NNE,17,8.0,26.0,92,0.00,,,-99.99,2.000000,,2013-03-11 13:52:00,
2013-03-11 09:00:00,24.0,22.0,-100.00,NNE,20,9.0,26.0,91,0.00,,,0.07,22.000000,,2013-03-11 14:00:00,
2013-03-11 09:22:00,24.0,22.0,-100.00,NNE,20,9.0,26.0,91,0.00,,,0.07,22.000000,,2013-03-11 14:22:00,
2013-03-11 09:33:00,24.0,22.0,-100.00,NNE,20,9.0,26.0,91,0.00,,,0.07,22.000000,,2013-03-11 14:33:00,
2013-03-11 09:43:00,24.0,22.0,-100.00,NNE,20,9.0,26.0,91,0.00,,,0.07,22.000000,,2013-03-11 14:43:00,
2013-03-11 09:53:00,24.0,22.0,-100.00,NNE,20,9.0,26.0,91,0.00,,,0.07,22.000000,,2013-03-11 14:53:00,
2013-03-11 10:00:00,25.0,22.0,-100.00,NNE,17,8.0,21.0,89,0.00,,,0.07,83.000000,,2013-03-11 15:00:00,
2013-03-11 10:23:00,25.0,22.0,-100.00,NNE,17,8.0,21.0,89,0.00,,,0.07,83.000000,,2013-03-11 15:23:00,
2013-03-11 10:32:00,25.0,22.0,-100.00,NNE,17,8.0,21.0,89,0.00,,,0.07,83.000000,,2013-03-11 15:32:00,
2013-03-11 10:43:00,25.0,22.0,-100.00,NNE,17,8.0,21.0,89,0.00,,,0.07,83.000000,,2013-03-11 15:43:00,
2013-03-11 10:53:00,25.0,22.0,-100.00,NNE,17,8.0,21.0,89,0.00,,,0.07,83.000000,,2013-03-11 15:53:00,
2013-03-11 11:00:00,25.0,22.0,-100.00,North,359,8.0,14.0,87,0.00,,,0.05,169.000000,,2013-03-11 16:00:00,
2013-03-11 11:32:00,25.0,22.0,-100.00,North,359,8.0,14.0,87,0.00,,,0.05,169.000000,,2013-03-11 16:32:00,
2013-03-11 11:43:00,25.0,22.0,-100.00,North,359,8.0,14.0,87,0.00,,,0.05,169.000000,,2013-03-11 16:43:00,
2013-03-11 11:52:00,25.0,22.0,-100.00,North,359,8.0,14.0,87,0.00,,,0.05,169.000000,,2013-03-11 16:52:00,
2013-03-11 12:00:00,27.0,22.0,-100.00,North,350,11.0,20.0,81,0.00,,,-99.99,282.000000,,2013-03-11 17:00:00,
2013-03-11 12:38:00,27.0,22.0,-100.00,North,350,11.0,20.0,81,0.00,,,-99.99,282.000000,,2013-03-11 17:38:00,
2013-03-11 12:53:00,27.0,22.0,-100.00,North,350,11.0,20.0,81,0.00,,,-99.99,282.000000,,2013-03-11 17:53:00,
2013-03-11 13:00:00,25.0,21.0,-100.00,North,353,11.0,20.0,83,0.00,,,-99.99,309.000000,,2013-03-11 18:00:00,
2013-03-11 13:33:00,25.0,21.0,-100.00,North,353,11.0,20.0,83,0.00,,,-99.99,309.000000,,2013-03-11 18:33:00,
2013-03-11 13:42:00,25.0,21.0,-100.00,North,353,11.0,20.0,83,0.00,,,-99.99,309.000000,,2013-03-11 18:42:00,
2013-03-11 13:53:00,25.0,21.0,-100.00,North,353,11.0,20.0,83,0.00,,,-99.99,309.000000,,2013-03-11 18:53:00,
2013-03-11 14:00:00,24.0,20.0,-100.00,North,351,11.0,19.0,83,0.00,,,0.00,305.000000,,2013-03-11 19:00:00,
2013-03-11 14:33:00,24.0,20.0,-100.00,North,351,11.0,19.0,83,0.00,,,0.00,305.000000,,2013-03-11 19:33:00,
2013-03-11 14:43:00,24.0,20.0,-100.00,North,351,11.0,19.0,83,0.00,,,0.00,305.000000,,2013-03-11 19:43:00,
2013-03-11 14:53:00,24.0,20.0,-100.00,North,351,11.0,19.0,83,0.00,,,0.00,305.000000,,2013-03-11 19:53:00,
2013-03-11 15:00:00,23.0,18.0,-100.00,North,357,9.0,20.0,82,0.00,,,0.00,219.000000,,2013-03-11 20:00:00,
2013-03-11 15:33:00,23.0,18.0,-100.00,North,357,9.0,20.0,82,0.00,,,0.00,219.000000,,2013-03-11 20:33:00,
2013-03-11 15:44:00,23.0,18.0,-100.00,North,357,9.0,20.0,82,0.00,,,0.00,219.000000,,2013-03-11 20:44:00,
2013-03-11 15:53:00,23.0,18.0,-100.00,North,357,9.0,20.0,82,0.00,,,0.00,219.000000,,2013-03-11 20:53:00,
2013-03-11 16:00:00,23.0,18.0,-100.00,North,354,9.0,19.0,80,0.00,,,0.00,196.000000,,2013-03-11 21:00:00,
2013-03-11 16:33:00,23.0,18.0,-100.00,North,354,9.0,19.0,80,0.00,,,0.00,196.000000,,2013-03-11 21:33:00,
2013-03-11 16:44:00,23.0,18.0,-100.00,North,354,9.0,19.0,80,0.00,,,0.00,196.000000,,2013-03-11 21:44:00,
2013-03-11 16:53:00,23.0,18.0,-100.00,North,354,9.0,19.0,80,0.00,,,0.00,196.000000,,2013-03-11 21:53:00,
2013-03-11 17:00:00,23.0,18.0,-100.00,North,360,7.0,17.0,81,0.00,,,0.00,121.000000,,2013-03-11 22:00:00,
2013-03-11 17:33:00,23.0,18.0,-100.00,North,360,7.0,17.0,81,0.00,,,0.00,121.000000,,2013-03-11 22:33:00,
2013-03-11 17:43:00,23.0,18.0,-100.00,North,360,7.0,17.0,81,0.00,,,0.00,121.000000,,2013-03-11 22:43:00,
2013-03-11 17:53:00,23.0,18.0,-100.00,North,360,7.0,17.0,81,0.00,,,0.00,121.000000,,2013-03-11 22:53:00,
2013-03-11 18:00:00,22.0,17.0,-100.00,NNW,337,7.0,15.0,81,0.00,,,0.00,86.000000,,2013-03-11 23:00:00,
2013-03-11 18:33:00,22.0,17.0,-100.00,NNW,337,7.0,15.0,81,0.00,,,0.00,86.000000,,2013-03-11 23:33:00,
2013-03-11 18:43:00,22.0,17.0,-100.00,NNW,337,7.0,15.0,81,0.00,,,0.00,86.000000,,2013-03-11 23:43:00,
2013-03-11 18:53:00,22.0,17.0,-100.00,NNW,337,7.0,15.0,81,0.00,,,0.00,86.000000,,2013-03-11 23:53:00,
2013-03-11 19:00:00,21.0,17.0,-100.00,NNW,335,6.0,14.0,84,0.00,,,0.00,50.000000,,2013-03-12 00:00:00,
2013-03-11 19:33:00,21.0,17.0,-100.00,NNW,335,6.0,14.0,84,0.00,,,0.00,50.000000,,2013-03-12 00:33:00,
2013-03-11 19:43:00,21.0,17.0,-100.00,NNW,335,6.0,14.0,84,0.00,,,0.00,50.000000,,2013-03-12 00:43:00,
2013-03-11 19:53:00,21.0,17.0,-100.00,NNW,335,6.0,14.0,84,0.00,,,0.00,50.000000,,2013-03-12 00:53:00,
2013-03-11 20:00:00,20.0,17.0,-100.00,NW,322,5.0,13.0,87,0.00,,,0.00,0.000000,,2013-03-12 01:00:00,
2013-03-11 20:33:00,20.0,17.0,-100.00,NW,322,5.0,13.0,87,0.00,,,0.00,0.000000,,2013-03-12 01:33:00,
2013-03-11 20:42:00,20.0,17.0,-100.00,NW,322,5.0,13.0,87,0.00,,,0.00,0.000000,,2013-03-12 01:42:00,
2013-03-11 20:52:00,20.0,17.0,-100.00,NW,322,5.0,13.0,87,0.00,,,0.00,0.000000,,2013-03-12 01:52:00,
2013-03-11 21:00:00,20.0,17.0,-100.00,NW,310,3.0,11.0,89,0.00,,,0.00,0.000000,,2013-03-12 02:00:00,
2013-03-11 21:32:00,20.0,17.0,-100.00,NW,310,3.0,11.0,89,0.00,,,0.00,0.000000,,2013-03-12 02:32:00,
2013-03-11 21:43:00,20.0,17.0,-100.00,NW,310,3.0,11.0,89,0.00,,,0.00,0.000000,,2013-03-12 02:43:00,
2013-03-11 21:52:00,20.0,17.0,-100.00,NW,310,3.0,11.0,89,0.00,,,0.00,0.000000,,2013-03-12 02:52:00,
2013-03-11 22:00:00,20.0,17.0,-100.00,NW,306,4.0,8.0,89,0.00,,,0.00,0.000000,,2013-03-12 03:00:00,
2013-03-11 22:32:00,20.0,17.0,-100.00,NW,306,4.0,8.0,89,0.00,,,0.00,0.000000,,2013-03-12 03:32:00,
2013-03-11 22:42:00,20.0,17.0,-100.00,NW,306,4.0,8.0,89,0.00,,,0.00,0.000000,,2013-03-12 03:42:00,
2013-03-11 22:53:00,20.0,17.0,-100.00,NW,306,4.0,8.0,89,0.00,,,0.00,0.000000,,2013-03-12 03:53:00,
2013-03-11 23:00:00,20.0,17.0,-100.00,West,280,3.0,6.0,89,0.00,,,-99.99,0.000000,,2013-03-12 04:00:00,
2013-03-11 23:33:00,20.0,17.0,-100.00,West,280,3.0,6.0,89,0.00,,,-99.99,0.000000,,2013-03-12 04:33:00,
2013-03-11 23:43:00,20.0,17.0,-100.00,West,280,3.0,6.0,89,0.00,,,-99.99,0.000000,,2013-03-12 04:43:00,
2013-03-11 23:52:00,20.0,17.0,-100.00,West,280,3.0,6.0,89,0.00,,,-99.99,0.000000,,2013-03-12 04:52:00,